createdAt,value
2017-05-08T04:24:13.976Z,11.67
2017-05-08T04:25:53.125Z,11.7
2017-05-08T04:27:24.230Z,11.7
2017-05-08T04:28:51.243Z,11.7
2017-05-08T04:30:20.574Z,11.7
2017-05-08T04:34:58.846Z,11.72
2017-05-08T04:36:37.897Z,11.74
2017-05-08T04:38:08.932Z,11.74
2017-05-08T04:39:50.034Z,11.78
2017-05-08T04:41:17.884Z,11.79
2017-05-08T04:42:48.231Z,11.8
2017-05-08T04:44:18.751Z,11.81
2017-05-08T04:46:02.490Z,11.81
2017-05-08T04:47:30.480Z,11.82
2017-05-08T04:49:03.450Z,11.83
2017-05-08T04:55:33.362Z,11.93
2017-05-08T04:58:08.113Z,11.97
2017-05-08T06:29:10.168Z,12.53
2017-05-08T06:30:57.001Z,12.52
2017-05-08T06:32:24.368Z,12.54
2017-05-08T06:34:01.713Z,12.59
2017-05-08T06:35:32.377Z,12.53
2017-05-08T06:37:20.137Z,12.44
2017-05-08T06:38:45.443Z,12.39
2017-05-08T06:40:12.159Z,12.43
2017-05-08T06:41:38.466Z,12.5
2017-05-08T06:43:18.819Z,12.5
2017-05-08T06:44:57.125Z,12.45
2017-05-08T06:46:24.574Z,12.53
2017-05-08T06:47:49.856Z,12.55
2017-05-08T06:49:27.364Z,12.55
2017-05-08T06:51:06.480Z,12.61
2017-05-08T06:52:35.886Z,12.72
2017-05-08T06:54:03.579Z,12.8
2017-05-08T06:55:29.663Z,12.88
2017-05-08T06:56:58.301Z,12.91
2017-05-08T07:46:03.559Z,14.05
2017-05-08T07:47:39.548Z,13.96
2017-05-08T07:52:12.226Z,13.71
2017-05-08T07:53:38.329Z,13.79
2017-05-08T07:55:06.233Z,13.87
2017-05-08T07:56:39.752Z,13.93
2017-05-08T07:58:21.591Z,14
2017-05-08T07:59:59.845Z,14.26
2017-05-08T08:01:36.767Z,14.37
2017-05-08T08:08:18.232Z,13.95
2017-05-08T08:09:54.897Z,13.99
2017-05-08T08:11:21.941Z,14.03
2017-05-08T08:17:45.861Z,14.2
2017-05-08T08:19:11.887Z,14.15
2017-05-08T08:20:56.212Z,14.19
2017-05-08T08:22:41.885Z,14.3
2017-05-08T08:24:15.792Z,14.42
2017-05-08T08:30:46.663Z,14.45
2017-05-08T08:32:13.089Z,14.4
2017-05-08T08:33:51.191Z,14.31
2017-05-08T08:37:26.851Z,13.95
2017-05-08T08:38:58.704Z,13.8
2017-05-08T08:42:11.016Z,13.6
2017-05-08T08:43:43.898Z,13.54
2017-05-08T08:45:18.212Z,13.48
2017-05-08T08:46:47.551Z,13.45
2017-05-08T08:48:16.885Z,13.43
2017-05-08T08:49:50.392Z,13.39
2017-05-08T08:54:19.760Z,13.5
2017-05-08T08:55:50.105Z,13.51
2017-05-08T08:57:32.123Z,13.56
2017-05-08T09:00:28.051Z,13.61
2017-05-08T09:04:07.053Z,13.66
2017-05-08T09:10:58.227Z,14.06
2017-05-08T09:15:21.812Z,14.49
2017-05-08T09:16:51.177Z,14.71
2017-05-08T09:18:19.564Z,14.96
2017-05-08T09:19:58.605Z,15.39
2017-05-08T09:21:36.788Z,15.57
2017-05-08T09:23:11.837Z,15.61
2017-05-08T09:27:40.847Z,15.83
2017-05-08T09:29:12.497Z,15.78
2017-05-08T09:32:10.089Z,15.92
2017-05-08T09:33:42.442Z,15.78
2017-05-08T09:36:51.034Z,15.22
2017-05-08T09:38:30.383Z,15.17
2017-05-08T09:39:59.679Z,15.38
2017-05-08T09:41:29.298Z,15.55
2017-05-08T09:42:58.985Z,15.55
2017-05-08T09:44:30.227Z,15.64
2017-05-08T09:46:01.977Z,15.54
2017-05-08T09:47:30.350Z,15.47
2017-05-08T09:49:18.683Z,15.64
2017-05-08T09:56:36.666Z,16.92
2017-05-08T09:58:39.548Z,17.27
2017-05-08T10:00:15.603Z,17.41
2017-05-08T10:05:01.684Z,17.06
2017-05-08T10:06:38.376Z,16.98
2017-05-08T10:11:47.130Z,17.37
2017-05-08T10:14:16.933Z,17.3
2017-05-08T10:16:00.871Z,17.5
2017-05-08T10:19:25.163Z,18.01
2017-05-08T10:20:56.506Z,18.21
2017-05-08T10:22:27.020Z,18.1
2017-05-08T10:23:55.403Z,17.75
2017-05-08T10:25:21.318Z,17.5
2017-05-08T10:26:48.584Z,17.34
2017-05-08T10:28:28.059Z,17.57
2017-05-08T10:31:13.423Z,18.39
2017-05-08T10:32:41.942Z,18.76
2017-05-08T10:34:16.804Z,19
2017-05-08T10:35:56.930Z,19.33
2017-05-08T10:37:28.381Z,19.61
2017-05-08T10:40:54.882Z,19.64
2017-05-08T10:42:33.633Z,19.51
2017-05-08T10:44:12.554Z,19.3
2017-05-08T10:45:42.949Z,19.21
2017-05-08T10:47:26.666Z,19.34
2017-05-08T10:49:08.742Z,19.46
2017-05-08T10:50:36.460Z,19.58
2017-05-08T10:52:04.448Z,19.63
2017-05-08T10:53:38.697Z,19.45
2017-05-08T10:55:07.315Z,19.13
2017-05-08T10:56:47.503Z,18.77
2017-05-08T10:58:17.782Z,18.23
2017-05-08T11:00:01.020Z,17.78
2017-05-08T11:01:50.208Z,17.67
2017-05-08T11:03:24.682Z,17.9
2017-05-08T11:31:38.305Z,16.61
2017-05-08T11:33:14.461Z,17.44
2017-05-08T11:35:01.164Z,17.68
2017-05-08T11:38:18.288Z,17.79
2017-05-08T11:39:55.775Z,17.42
2017-05-08T11:41:32.355Z,17.19
2017-05-08T11:43:00.508Z,17.13
2017-05-08T11:44:40.350Z,16.93
2017-05-08T11:46:11.794Z,17.04
2017-05-08T11:47:40.619Z,17.15
2017-05-08T11:49:07.415Z,16.98
2017-05-08T11:50:34.791Z,16.81
2017-05-08T11:52:13.581Z,16.63
2017-05-08T11:53:41.546Z,16.22
2017-05-08T11:55:21.081Z,15.65
2017-05-08T11:56:51.275Z,15.11
2017-05-08T11:58:30.092Z,14.72
2017-05-08T12:00:20.212Z,14.3
2017-05-08T12:01:47.138Z,14.18
2017-05-08T12:03:14.200Z,14.57
2017-05-08T12:04:40.505Z,14.86
2017-05-08T12:06:41.842Z,14.88
2017-05-08T12:08:35.928Z,14.79
2017-05-08T12:11:26.421Z,14.74
2017-05-08T12:13:03.704Z,14.55
2017-05-08T12:18:10.823Z,14.93
2017-05-08T12:19:40.306Z,14.96
2017-05-08T12:21:06.942Z,15.05
2017-05-08T12:22:40.740Z,14.94
2017-05-08T12:36:18.215Z,13.69
2017-05-08T12:37:51.065Z,13.88
2017-05-08T12:40:50.149Z,14.1
2017-05-08T12:45:43.374Z,13.93
2017-05-08T12:47:13.282Z,13.94
2017-05-08T12:49:01.828Z,14
2017-05-08T12:52:34.502Z,14.18
2017-05-08T12:54:02.687Z,14.2
2017-05-08T12:55:28.116Z,14.21
2017-05-08T12:56:58.371Z,14.27
2017-05-08T12:58:45.315Z,14.42
2017-05-08T13:00:22.802Z,14.52
2017-05-08T13:01:47.797Z,14.58
2017-05-08T13:03:14.735Z,14.56
2017-05-08T13:06:15.574Z,14.43
2017-05-08T13:07:46.095Z,14.42
2017-05-08T13:09:14.022Z,14.46
2017-05-08T13:10:40.573Z,14.36
2017-05-08T13:12:07.322Z,14.5
2017-05-08T13:13:33.854Z,14.74
2017-05-08T13:14:59.974Z,14.93
2017-05-08T13:16:30.656Z,15.16
2017-05-08T13:18:08.077Z,15.33
2017-05-08T13:19:36.664Z,15.37
2017-05-08T13:21:08.389Z,15.38
2017-05-08T13:22:45.031Z,15.35
2017-05-08T13:34:47.750Z,15.99
2017-05-08T13:36:15.204Z,16.11
2017-05-08T13:39:40.087Z,15.97
2017-05-08T13:41:26.799Z,15.98
2017-05-08T13:43:01.213Z,16.01
2017-05-08T13:44:26.848Z,15.73
2017-05-08T13:45:54.812Z,15.56
2017-05-08T13:48:25.724Z,15.07
2017-05-08T13:49:58.950Z,14.89
2017-05-08T13:51:26.059Z,14.55
2017-05-08T13:54:14.459Z,14.36
2017-05-08T13:55:44.108Z,14.33
2017-05-08T13:57:29.089Z,14.12
2017-05-08T13:58:56.931Z,14.09
2017-05-08T14:00:22.775Z,14.22
2017-05-08T14:01:50.298Z,14.28
2017-05-08T14:03:16.521Z,14.26
2017-05-08T14:04:45.363Z,14.22
2017-05-08T14:06:36.314Z,14.12
2017-05-08T14:08:03.959Z,14.02
2017-05-08T14:09:34.352Z,13.93
2017-05-08T14:11:02.245Z,13.84
2017-05-08T14:12:42.493Z,13.72
2017-05-08T14:15:30.637Z,13.6
2017-05-08T14:28:44.129Z,13.51
2017-05-08T14:30:13.652Z,13.48
2017-05-08T14:31:47.144Z,13.45
2017-05-08T14:33:16.029Z,13.41
2017-05-08T14:34:52.262Z,13.35
2017-05-08T14:37:28.410Z,13.27
2017-05-08T14:38:56.024Z,13.19
2017-05-08T14:40:39.123Z,12.97
2017-05-08T14:42:10.671Z,12.72
2017-05-08T14:43:37.437Z,12.55
2017-05-08T14:45:04.754Z,12.44
2017-05-08T14:46:37.428Z,12.45
2017-05-08T14:48:04.528Z,12.52
2017-05-08T14:49:37.140Z,12.65
2017-05-08T14:51:13.709Z,12.78
2017-05-08T14:52:50.070Z,12.68
2017-05-08T14:56:17.537Z,12.6
2017-05-08T14:59:35.082Z,12.94
2017-05-08T15:01:02.891Z,12.97
2017-05-08T15:02:36.937Z,13.01
2017-05-08T15:04:07.460Z,13.04
2017-05-08T15:05:34.223Z,13.07
2017-05-08T15:07:11.676Z,13.18
2017-05-08T15:08:47.833Z,13.26
2017-05-08T15:10:18.958Z,13.3
2017-05-08T15:11:46.552Z,13.35
2017-05-08T15:13:21.144Z,13.46
2017-05-08T15:14:49.414Z,13.59
2017-05-08T15:18:05.186Z,13.67
2017-05-08T15:19:31.760Z,13.64
2017-05-08T15:23:57.778Z,13.46
2017-05-08T15:27:09.190Z,13.06
2017-05-08T15:28:38.527Z,12.85
2017-05-08T15:32:00.298Z,12.6
2017-05-08T15:33:48.597Z,12.49
2017-05-08T15:35:27.657Z,12.39
2017-05-08T15:37:20.632Z,12.43
2017-05-08T15:39:24.250Z,12.48
2017-05-08T15:41:00.981Z,12.53
2017-05-08T15:44:42.293Z,12.63
2017-05-08T15:46:19.552Z,12.64
2017-05-08T15:49:58.836Z,12.58
2017-05-08T15:51:43.917Z,12.61
2017-05-08T15:54:54.154Z,12.71
2017-05-08T15:59:18.686Z,12.64
2017-05-08T16:03:05.961Z,12.45
2017-05-08T16:05:02.290Z,12.35
2017-05-08T16:18:55.944Z,11.99
2017-05-08T16:20:30.868Z,11.96
2017-05-08T16:22:14.150Z,11.94
2017-05-08T16:25:24.592Z,12
2017-05-08T16:28:11.002Z,12.04
2017-05-08T16:29:49.267Z,12.04
2017-05-08T16:31:36.191Z,12.01
2017-05-08T16:33:04.989Z,11.97
2017-05-08T16:34:42.327Z,11.91
2017-05-08T16:36:15.323Z,11.88
2017-05-08T16:39:44.397Z,11.85
2017-05-08T16:41:13.722Z,11.84
2017-05-08T16:45:08.077Z,11.66
2017-05-08T16:50:16.101Z,11.47
2017-05-08T16:51:56.696Z,11.52
2017-05-08T16:53:42.691Z,11.61
2017-05-08T16:55:14.608Z,11.65
2017-05-08T16:57:12.178Z,11.64
2017-05-08T17:00:51.795Z,11.53
2017-05-08T17:02:32.857Z,11.46
2017-05-08T17:04:01.713Z,11.41
2017-05-08T17:05:41.555Z,11.36
2017-05-08T17:08:25.747Z,11.2
2017-05-08T17:09:53.664Z,11.14
2017-05-08T17:11:23.312Z,11.08
2017-05-08T17:13:01.866Z,11.01
2017-05-08T17:16:46.747Z,10.99
2017-05-08T17:18:19.281Z,10.96
2017-05-08T17:20:03.968Z,10.9
2017-05-08T17:21:34.226Z,10.88
2017-05-08T17:23:08.509Z,10.86
2017-05-08T17:24:50.604Z,10.8
2017-05-08T17:26:18.509Z,10.75
2017-05-08T17:41:44.510Z,10.62
2017-05-08T17:43:23.908Z,10.6
2017-05-08T17:44:53.664Z,10.57
2017-05-08T17:46:34.109Z,10.52
2017-05-08T17:48:12.145Z,10.46
2017-05-08T17:49:48.338Z,10.41
2017-05-08T17:51:17.288Z,10.39
2017-05-08T17:52:54.449Z,10.34
2017-05-08T17:54:35.270Z,10.29
2017-05-08T17:58:14.990Z,10.21
2017-05-08T18:01:59.796Z,10.12
2017-05-08T18:03:47.952Z,10.09
2017-05-08T18:05:12.954Z,10.08
2017-05-08T18:06:38.897Z,10.05
2017-05-08T18:09:42.035Z,10.03
2017-05-08T18:11:07.389Z,10.03
2017-05-08T18:12:43.307Z,10.01
2017-05-08T18:14:08.998Z,9.97
2017-05-08T18:15:35.424Z,9.94
2017-05-08T18:17:13.365Z,9.91
2017-05-08T18:18:39.751Z,9.87
2017-05-08T18:20:08.123Z,9.85
2017-05-08T18:21:33.339Z,9.82
2017-05-08T18:22:58.724Z,9.81
2017-05-08T18:24:27.302Z,9.8
2017-05-08T18:25:56.083Z,9.8
2017-05-08T18:27:25.727Z,9.79
2017-05-08T18:28:51.893Z,9.78
2017-05-08T18:30:20.080Z,9.77
2017-05-08T18:31:47.650Z,9.76
2017-05-08T18:33:13.661Z,9.74
2017-05-08T18:34:53.656Z,9.72
2017-05-08T18:36:19.601Z,9.71
2017-05-08T18:37:50.955Z,9.71
2017-05-08T18:39:19.652Z,9.7
2017-05-08T18:40:46.900Z,9.7
2017-05-08T18:43:50.380Z,9.64
2017-05-08T18:45:21.471Z,9.57
2017-05-08T18:46:46.700Z,9.5
2017-05-08T18:48:11.534Z,9.43
2017-05-08T18:49:41.183Z,9.39
2017-05-08T18:51:32.056Z,9.33
2017-05-08T18:53:07.350Z,9.28
2017-05-08T18:54:48.217Z,9.24
2017-05-08T18:56:13.600Z,9.21
2017-05-08T18:57:48.263Z,9.18
2017-05-08T18:59:15.200Z,9.17
2017-05-08T19:00:53.950Z,9.16
2017-05-08T19:02:31.340Z,9.15
2017-05-08T19:04:02.007Z,9.14
2017-05-08T19:05:32.223Z,9.12
2017-05-08T19:07:02.644Z,9.11
2017-05-08T19:08:52.230Z,9.11
2017-05-08T19:10:17.716Z,9.09
2017-05-08T19:11:46.499Z,9.08
2017-05-08T19:14:36.121Z,9.07
2017-05-08T19:17:18.980Z,9.06
2017-05-08T19:19:03.727Z,9.07
2017-05-08T19:20:30.463Z,9.06
2017-05-08T19:23:31.026Z,9.04
2017-05-08T19:26:55.011Z,9.02
2017-05-08T19:28:37.721Z,9.01
2017-05-08T19:30:23.707Z,8.99
2017-05-08T19:31:53.925Z,8.96
2017-05-08T19:33:27.610Z,8.95
2017-05-08T19:34:58.629Z,8.93
2017-05-08T19:36:29.794Z,8.92
2017-05-08T19:38:03.462Z,8.91
2017-05-08T19:39:44.189Z,8.9
2017-05-08T19:41:10.683Z,8.9
2017-05-08T19:42:55.670Z,8.9
2017-05-08T19:44:29.691Z,8.9
2017-05-08T19:46:11.485Z,8.9
2017-05-08T19:47:55.557Z,8.89
2017-05-08T19:49:29.932Z,8.87
2017-05-08T19:50:57.960Z,8.86
2017-05-08T19:54:01.911Z,8.85
2017-05-08T19:55:29.222Z,8.84
2017-05-08T19:56:54.012Z,8.83
2017-05-08T20:04:21.816Z,8.84
2017-05-08T20:06:15.278Z,8.87
2017-05-08T20:08:07.389Z,8.88
2017-05-08T20:11:09.474Z,8.88
2017-05-08T20:15:58.072Z,8.89
2017-05-08T20:17:40.988Z,8.9
2017-05-08T20:21:03.896Z,8.91
2017-05-08T20:22:56.765Z,8.92
2017-05-08T20:25:24.931Z,8.91
2017-05-08T20:26:52.442Z,8.9
2017-05-08T20:28:19.544Z,8.87
2017-05-08T20:31:28.026Z,8.84
2017-05-08T20:32:57.052Z,8.82
2017-05-08T20:35:45.396Z,8.79
2017-05-08T20:39:16.632Z,8.77
2017-05-08T20:42:41.500Z,8.73
2017-05-08T20:44:16.676Z,8.72
2017-05-08T20:45:58.944Z,8.7
2017-05-08T20:53:15.238Z,8.61
2017-05-08T21:30:59.574Z,8.69
2017-05-08T22:15:37.010Z,8.58
2017-05-08T22:17:26.057Z,8.52
